Soaring Guidance
Issued by NWS Reno, NV

Home | Current Version | Previous Version | Text Only | Print | Product List | Glossary On
Versions: 1 2 3 4 5 6 7 8 9 10 11 12 13 14 15 16
000
UXUS97 KREV 261351
SRGREV

SOARING FORECAST
NATIONAL WEATHER SERVICE - RENO NV
700 AM PDT THU MAR 26 2015

THIS SOARING FORECAST IS FOR THE EASTERN SIERRA AND WESTERN NEVADA
WITH SPECIFIC INDICES FOR THE GREATER RENO AREA.

THIS FORECAST IS NOT UPDATED.

FOR CURRENT FLIGHT CONDITIONS...FORECASTS...AND ADVISORIES...ACCESS
YOUR LOCAL BRIEFING OUTLET OR FLIGHT SERVICE STATION.

*******************************************************************
LOCAL INDICES FOR RENO:                   TODAY     YESTERDAY
MAXIMUM TEMPERATURE AT RENO...(DEG F)...     74
TRIGGER TEMPERATURE...........(DEG F)...     61          50
   EXCEEDED YESTERDAY BY 18Z
MAXIMUM ALTITUDE..............(FT MSL)..  11800       11200
SOARING INDEX.................(FPM).....    474         396
FORECASTED K-INDEX.........VALID 18Z....     13          12
FORECASTED K-INDEX.........VALID 00Z....     20          17
FORECASTED LIFTED INDEX....VALID 18Z....      5           7
FORECASTED LIFTED INDEX....VALID 00Z....      5           6

AFTERNOON WINDS ALOFT FORECAST
MSL (FT) WIND/TEMP
9000  9900/+08
10000 9902/+06
12000 3005/+02
14000 2806/-02
16000 2707/-07
18000 2711/-12
24000 2815/-26
30000 2621/-44
34000 2822/-51
39000 3133/-51

SLIDE MOUNTAIN DATA:
 SLD HR 1240 M 36/21/1119/M  /SLIDE MTN UNOFFICIAL OBSERVATION

RENO TAF FORECAST:
KRNO 261121Z 2612/2712 VRB04KT P6SM SCT200
     FM262200 13006KT P6SM SCT200
     FM270200 VRB04KT P6SM SKC

CARSON CITY TAF FORECAST:
KCXP 261121Z 2612/2712 VRB03KT P6SM SCT200
     FM262000 07010KT P6SM SCT200
     FM270200 VRB04KT P6SM SKC

OUTLOOK FOR THE RENO-CARSON CITY-MINDEN AREA:
.FRIDAY...SUNNY. HIGHS 77 TO 82. LIGHT WINDS BECOMING SOUTHWEST
10 TO 15 MPH MPH WITH GUSTS UP TO 30 MPH IN THE AFTERNOON.

SUNRISE AND SUNSET
MARCH 26 2015.........SUNRISE   653 AM PDT   SUNSET   717 PM PDT
MARCH 27 2015.........SUNRISE   652 AM PDT   SUNSET   718 PM PDT



THIS PRODUCT IS ROUTINELY PREPARED BY 700 AM AND IS
DISTRIBUTED TO THE RENO FLIGHT SERVICE STATION AS WELL AS THE
NATIONAL WEATHER SERVICE WORLD WIDE WEB HOMEPAGE AT:
       HTTP://WWW.WEATHER.GOV/RENO






USA.gov is the U.S. government's official web portal to all federal, state and local government web resources and services.